createdAt,value
2022-12-19T00:00:34.209Z,12.88
2022-12-19T00:03:21.972Z,12.75
2022-12-19T00:06:09.960Z,13.63
2022-12-19T00:09:00.575Z,11.50
2022-12-19T00:11:50.361Z,13.05
2022-12-19T00:14:38.143Z,14.07
2022-12-19T00:17:25.821Z,12.45
2022-12-19T00:20:13.570Z,10.60
2022-12-19T00:23:05.347Z,10.85
2022-12-19T00:25:56.031Z,12.25
2022-12-19T00:28:46.658Z,11.98
2022-12-19T00:31:37.034Z,13.00
2022-12-19T00:34:27.851Z,12.18
2022-12-19T00:37:15.657Z,13.35
2022-12-19T00:40:03.496Z,11.98
2022-12-19T00:42:53.633Z,13.60
2022-12-19T00:45:41.700Z,13.73
2022-12-19T00:48:31.876Z,13.43
2022-12-19T00:51:22.158Z,12.85
2022-12-19T00:54:12.236Z,13.00
2022-12-19T00:57:00.760Z,12.45
2022-12-19T00:59:48.655Z,12.65
2022-12-19T01:02:36.534Z,13.25
2022-12-19T01:05:24.479Z,11.85
2022-12-19T01:08:12.688Z,14.52
2022-12-19T01:11:03.313Z,14.13
2022-12-19T01:13:50.838Z,14.00
2022-12-19T01:16:38.826Z,12.63
2022-12-19T01:19:30.239Z,13.32
2022-12-19T01:22:29.007Z,13.10
2022-12-19T01:25:21.393Z,12.13
2022-12-19T01:28:13.856Z,13.45
2022-12-19T01:31:06.071Z,12.35
2022-12-19T01:33:55.482Z,11.70
2022-12-19T01:36:43.878Z,12.23
2022-12-19T01:39:31.587Z,13.07
2022-12-19T01:42:24.151Z,11.82
2022-12-19T01:45:30.389Z,12.95
2022-12-19T01:48:28.673Z,11.45
2022-12-19T01:51:24.095Z,12.60
2022-12-19T01:54:16.113Z,11.95
2022-12-19T01:57:09.128Z,12.32
2022-12-19T02:00:00.182Z,12.75
2022-12-19T02:03:02.122Z,13.07
2022-12-19T02:05:50.441Z,12.88
2022-12-19T02:08:44.924Z,12.45
2022-12-19T02:11:32.702Z,13.05
2022-12-19T02:14:21.103Z,11.88
2022-12-19T02:17:24.415Z,13.15
2022-12-19T02:20:46.928Z,12.27
2022-12-19T02:23:49.744Z,12.75
2022-12-19T02:27:08.477Z,13.88
2022-12-19T02:30:17.924Z,13.82
2022-12-19T02:33:20.595Z,13.35
2022-12-19T02:36:19.009Z,13.25
2022-12-19T02:39:12.376Z,13.48
2022-12-19T02:42:02.069Z,12.40
2022-12-19T02:44:52.589Z,12.10
2022-12-19T02:47:40.835Z,12.45
2022-12-19T02:50:37.206Z,14.55
2022-12-19T02:53:25.102Z,14.57
2022-12-19T02:56:33.950Z,12.95
2022-12-19T02:59:40.641Z,12.93
2022-12-19T03:03:00.666Z,14.25
2022-12-19T03:06:14.564Z,13.52
2022-12-19T03:09:07.200Z,13.00
2022-12-19T03:12:24.213Z,14.13
2022-12-19T03:15:13.790Z,12.95
2022-12-19T03:18:02.293Z,12.52
2022-12-19T03:21:11.475Z,14.55
2022-12-19T03:23:59.603Z,14.23
2022-12-19T03:26:56.796Z,12.48
2022-12-19T03:29:54.231Z,14.13
2022-12-19T03:32:45.696Z,13.65
2022-12-19T03:35:39.782Z,13.57
2022-12-19T03:38:32.329Z,12.55
2022-12-19T03:41:45.303Z,13.05
2022-12-19T03:44:37.225Z,11.48
2022-12-19T03:47:35.627Z,13.65
2022-12-19T03:50:25.658Z,13.10
2022-12-19T03:53:28.312Z,13.20
2022-12-19T03:56:31.810Z,10.98
2022-12-19T03:59:41.421Z,12.43
2022-12-19T04:02:32.800Z,16.15
2022-12-19T04:05:26.218Z,13.52
2022-12-19T04:08:15.328Z,14.68
2022-12-19T04:11:09.441Z,14.80
2022-12-19T04:14:04.176Z,14.13
2022-12-19T04:17:01.160Z,14.68
2022-12-19T04:19:56.014Z,13.45
2022-12-19T04:22:43.643Z,14.23
2022-12-19T04:25:35.814Z,13.02
2022-12-19T04:28:36.718Z,13.10
2022-12-19T04:31:24.978Z,13.48
2022-12-19T04:34:12.816Z,13.60
2022-12-19T04:37:04.089Z,14.80
2022-12-19T04:39:51.791Z,14.50
2022-12-19T04:42:39.411Z,13.38
2022-12-19T04:45:27.036Z,13.85
2022-12-19T04:48:21.165Z,13.13
2022-12-19T04:51:08.917Z,14.77
2022-12-19T04:53:56.687Z,13.80
2022-12-19T04:56:44.408Z,15.00
2022-12-19T04:59:32.327Z,15.73
2022-12-19T05:02:20.172Z,15.80
2022-12-19T05:05:08.466Z,16.05
2022-12-19T05:08:01.874Z,15.85
2022-12-19T05:10:49.761Z,17.00
2022-12-19T05:13:46.251Z,16.73
2022-12-19T05:16:33.980Z,14.20
2022-12-19T05:19:25.027Z,14.07
2022-12-19T05:22:17.475Z,14.25
2022-12-19T05:25:05.644Z,15.02
2022-12-19T05:27:53.296Z,14.40
2022-12-19T05:30:40.963Z,15.18
2022-12-19T05:33:28.588Z,14.52
2022-12-19T05:36:17.776Z,14.90
2022-12-19T05:39:05.631Z,14.77
2022-12-19T05:41:53.272Z,15.63
2022-12-19T05:44:40.995Z,15.48
2022-12-19T05:47:28.707Z,16.17
2022-12-19T05:50:18.519Z,15.45
2022-12-19T05:53:11.689Z,16.20
2022-12-19T05:56:08.686Z,17.17
2022-12-19T05:58:58.935Z,16.73
2022-12-19T06:01:47.054Z,14.98
2022-12-19T06:04:40.331Z,18.63
2022-12-19T06:07:27.992Z,17.00
2022-12-19T06:10:15.719Z,16.60
2022-12-19T06:13:03.600Z,18.45
2022-12-19T06:15:51.232Z,17.92
2022-12-19T06:18:44.256Z,18.05
2022-12-19T06:21:32.747Z,17.40
2022-12-19T06:24:21.740Z,20.27
2022-12-19T06:27:09.356Z,18.02
2022-12-19T06:29:57.123Z,19.88
2022-12-19T06:32:44.725Z,18.25
2022-12-19T06:35:32.533Z,17.20
2022-12-19T06:38:20.161Z,17.73
2022-12-19T06:41:28.137Z,20.88
2022-12-19T06:44:17.528Z,18.70
2022-12-19T06:47:05.199Z,21.55
2022-12-19T06:49:54.135Z,19.17
2022-12-19T06:52:41.924Z,30.33
2022-12-19T06:55:32.466Z,23.00
2022-12-19T06:58:24.079Z,22.30
2022-12-19T07:01:31.064Z,20.48
2022-12-19T07:04:29.801Z,32.45
2022-12-19T07:07:17.477Z,26.98
2022-12-19T07:10:06.261Z,20.25
2022-12-19T07:12:53.836Z,19.13
2022-12-19T07:15:42.147Z,20.63
2022-12-19T07:18:34.420Z,21.35
2022-12-19T07:24:12.098Z,19.02
2022-12-19T07:26:59.899Z,20.75
2022-12-19T07:29:47.495Z,22.83
2022-12-19T07:32:35.267Z,22.00
2022-12-19T07:35:23.441Z,20.15
2022-12-19T07:38:11.033Z,21.15
2022-12-19T07:41:01.927Z,19.55
2022-12-19T07:43:49.712Z,23.23
2022-12-19T07:46:37.382Z,21.70
2022-12-19T07:49:25.122Z,19.55
2022-12-19T07:52:12.825Z,21.83
2022-12-19T07:55:00.556Z,20.05
2022-12-19T07:57:48.260Z,19.52
2022-12-19T08:00:36.474Z,21.92
2022-12-19T08:03:25.151Z,24.05
2022-12-19T08:06:18.065Z,20.33
2022-12-19T08:09:17.044Z,18.95
2022-12-19T08:12:05.003Z,18.17
2022-12-19T08:14:56.971Z,20.70
2022-12-19T08:17:45.187Z,20.90
2022-12-19T08:20:32.875Z,19.27
2022-12-19T08:23:23.807Z,18.35
2022-12-19T08:26:13.691Z,20.38
2022-12-19T08:29:01.477Z,19.02
2022-12-19T08:31:49.510Z,18.52
2022-12-19T08:34:37.294Z,19.73
2022-12-19T08:37:24.906Z,21.90
2022-12-19T08:40:13.069Z,20.90
2022-12-19T08:43:01.230Z,21.10
2022-12-19T08:45:52.156Z,22.88
2022-12-19T08:48:39.850Z,23.13
2022-12-19T08:51:27.515Z,22.20
2022-12-19T08:54:15.523Z,23.30
2022-12-19T08:57:03.332Z,21.20
2022-12-19T08:59:50.928Z,20.13
2022-12-19T09:02:40.010Z,21.50
2022-12-19T09:06:03.332Z,22.90
2022-12-19T09:08:36.365Z,22.88
2022-12-19T09:11:23.960Z,19.58
2022-12-19T09:14:11.740Z,21.75
2022-12-19T09:16:59.332Z,21.20
2022-12-19T09:19:48.531Z,21.88
2022-12-19T09:22:36.195Z,22.92
2022-12-19T09:25:24.011Z,20.15
2022-12-19T09:28:27.319Z,17.33
2022-12-19T09:31:18.075Z,19.77
2022-12-19T09:34:06.212Z,18.73
2022-12-19T09:36:53.949Z,18.63
2022-12-19T09:39:41.885Z,17.83
2022-12-19T09:42:47.645Z,18.70
2022-12-19T09:45:47.990Z,18.15
2022-12-19T09:48:35.628Z,18.13
2022-12-19T09:51:42.000Z,20.23
2022-12-19T09:54:44.945Z,19.73
2022-12-19T09:57:56.813Z,22.83
2022-12-19T10:00:49.373Z,19.38
2022-12-19T10:03:50.691Z,18.83
2022-12-19T10:07:13.026Z,18.40
2022-12-19T10:12:35.144Z,19.02
2022-12-19T10:13:32.792Z,16.48
2022-12-19T10:16:39.586Z,17.80
2022-12-19T10:19:47.373Z,17.98
2022-12-19T10:22:37.761Z,18.85
2022-12-19T10:25:46.808Z,18.05
2022-12-19T10:28:58.818Z,17.70
2022-12-19T10:32:21.150Z,15.15
2022-12-19T10:35:19.775Z,17.50
2022-12-19T10:38:11.695Z,17.90
2022-12-19T10:41:28.287Z,18.00
2022-12-19T10:44:16.155Z,16.90
2022-12-19T10:47:03.938Z,18.02
2022-12-19T10:49:52.437Z,18.80
2022-12-19T10:52:52.616Z,17.00
2022-12-19T10:55:52.370Z,16.88
2022-12-19T10:58:44.491Z,17.35
2022-12-19T11:01:36.703Z,15.93
2022-12-19T11:04:31.959Z,17.42
2022-12-19T11:07:22.037Z,17.55
2022-12-19T11:11:35.103Z,17.80
2022-12-19T11:16:56.134Z,18.05
2022-12-19T11:18:25.388Z,17.92
2022-12-19T11:29:17.074Z,17.10
2022-12-19T11:29:54.948Z,17.80
2022-12-19T11:30:38.371Z,18.65
2022-12-19T11:33:18.855Z,16.30
2022-12-19T11:36:07.054Z,18.48
2022-12-19T11:38:55.417Z,18.52
2022-12-19T11:41:51.605Z,18.70
2022-12-19T11:44:48.584Z,17.33
2022-12-19T11:47:46.071Z,14.80
2022-12-19T11:50:39.640Z,17.15
2022-12-19T11:53:34.854Z,17.00
2022-12-19T11:56:25.539Z,13.18
2022-12-19T12:02:47.175Z,15.82
2022-12-19T12:05:43.314Z,14.82
2022-12-19T12:11:02.025Z,13.70
2022-12-19T12:17:24.392Z,13.05
2022-12-19T12:31:06.910Z,15.35
2022-12-19T12:31:23.145Z,14.35
2022-12-19T12:31:50.446Z,14.40
2022-12-19T12:32:02.052Z,11.90
2022-12-19T12:35:43.570Z,12.50
2022-12-19T12:37:51.093Z,11.98
2022-12-19T12:39:25.415Z,10.65
2022-12-19T12:42:53.982Z,12.70
2022-12-19T12:48:37.801Z,12.10
2022-12-19T12:51:27.086Z,11.65
2022-12-19T12:54:16.411Z,12.88
2022-12-19T12:57:04.347Z,13.98
2022-12-19T13:00:26.213Z,14.35
2022-12-19T13:03:18.318Z,11.35
2022-12-19T13:06:21.421Z,10.90
2022-12-19T13:09:09.073Z,10.95
2022-12-19T13:12:15.143Z,12.05
2022-12-19T13:15:27.765Z,12.40
2022-12-19T13:18:38.195Z,11.48
2022-12-19T13:21:25.973Z,10.98
2022-12-19T13:24:21.448Z,9.63
2022-12-19T13:27:37.855Z,11.65
2022-12-19T13:30:25.802Z,10.15
2022-12-19T13:33:13.656Z,10.73
2022-12-19T13:39:51.773Z,9.10
2022-12-19T13:40:00.639Z,10.80
2022-12-19T13:43:10.019Z,9.93
2022-12-19T13:46:27.306Z,9.43
2022-12-19T13:49:39.930Z,12.27
2022-12-19T13:52:27.700Z,14.30
2022-12-19T13:55:15.499Z,16.25
2022-12-19T13:58:05.285Z,18.90
2022-12-19T14:00:55.981Z,16.42
2022-12-19T14:03:46.881Z,17.65
2022-12-19T14:07:05.198Z,18.33
2022-12-19T14:11:29.041Z,15.48
2022-12-19T14:13:55.680Z,26.50
2022-12-19T14:16:43.508Z,17.95
2022-12-19T14:19:39.419Z,16.58
2022-12-19T14:22:27.333Z,18.55
2022-12-19T14:26:14.444Z,15.43
2022-12-19T14:28:42.573Z,19.80
2022-12-19T14:31:33.249Z,18.75
2022-12-19T14:39:22.318Z,12.15
2022-12-19T14:41:07.470Z,12.43
2022-12-19T14:51:51.418Z,11.35
2022-12-19T14:52:08.452Z,11.77
2022-12-19T14:54:26.285Z,13.30
2022-12-19T14:54:37.228Z,16.98
2022-12-19T14:56:59.715Z,12.20
2022-12-19T14:59:48.996Z,11.25
2022-12-19T15:02:39.596Z,11.93
2022-12-19T15:05:28.530Z,11.35
2022-12-19T15:10:58.073Z,10.35
2022-12-19T15:12:39.388Z,10.00
2022-12-19T15:15:24.919Z,13.63
2022-12-19T15:18:34.458Z,14.38
2022-12-19T15:21:22.395Z,11.43
2022-12-19T15:24:10.218Z,10.93
2022-12-19T15:26:57.832Z,12.35
2022-12-19T15:29:45.841Z,10.75
2022-12-19T15:32:33.395Z,11.20
2022-12-19T15:35:21.119Z,11.20
2022-12-19T15:38:09.893Z,11.05
2022-12-19T15:40:57.569Z,8.80
2022-12-19T15:46:57.915Z,10.02
2022-12-19T15:49:46.409Z,14.18
2022-12-19T15:52:39.264Z,10.30
2022-12-19T15:55:40.085Z,8.50
2022-12-19T15:58:28.786Z,9.10
2022-12-19T16:01:16.648Z,9.02
2022-12-19T16:04:04.796Z,9.40
2022-12-19T16:06:52.931Z,26.45
2022-12-19T16:09:40.634Z,19.42
2022-12-19T16:12:35.697Z,17.38
2022-12-19T16:15:29.780Z,14.88
2022-12-19T16:18:19.892Z,11.63
2022-12-19T16:21:09.945Z,11.98
2022-12-19T16:23:57.509Z,10.55
2022-12-19T16:26:51.531Z,12.52
2022-12-19T16:29:41.854Z,10.20
2022-12-19T16:32:29.777Z,8.02
2022-12-19T16:35:40.336Z,9.70
2022-12-19T16:38:28.670Z,8.52
2022-12-19T16:41:23.780Z,8.95
2022-12-19T16:44:23.990Z,10.98
2022-12-19T16:47:15.960Z,11.23
2022-12-19T16:50:17.832Z,7.63
2022-12-19T16:53:05.620Z,9.60
2022-12-19T16:55:55.639Z,9.65
2022-12-19T16:58:43.538Z,9.02
2022-12-19T17:01:31.486Z,9.32
2022-12-19T17:04:22.676Z,9.80
2022-12-19T17:07:11.243Z,9.57
2022-12-19T17:09:58.866Z,12.60
2022-12-19T17:12:48.206Z,8.60
2022-12-19T17:15:39.070Z,8.85
2022-12-19T17:18:36.082Z,8.70
2022-12-19T17:21:26.129Z,9.60
2022-12-19T17:24:17.670Z,10.32
2022-12-19T17:27:06.226Z,11.05
2022-12-19T17:29:54.027Z,12.90
2022-12-19T17:32:42.051Z,12.50
2022-12-19T17:35:34.399Z,13.13
2022-12-19T17:41:19.295Z,11.85
2022-12-19T17:44:07.025Z,12.10
2022-12-19T17:46:54.838Z,12.45
2022-12-19T17:49:42.990Z,11.40
2022-12-19T17:52:36.375Z,13.52
2022-12-19T17:55:27.773Z,14.07
2022-12-19T17:58:17.129Z,12.73
2022-12-19T18:01:04.885Z,11.85
2022-12-19T18:03:54.074Z,12.93
2022-12-19T18:06:42.609Z,10.85
2022-12-19T18:09:31.415Z,13.07
2022-12-19T18:12:19.606Z,13.23
2022-12-19T18:15:11.407Z,13.07
2022-12-19T18:17:59.143Z,16.83
2022-12-19T18:20:46.873Z,14.63
2022-12-19T18:23:35.614Z,12.63
2022-12-19T18:26:23.522Z,16.65
2022-12-19T18:29:14.787Z,15.98
2022-12-19T18:32:03.067Z,24.33
2022-12-19T18:34:53.625Z,19.10
2022-12-19T18:37:45.352Z,19.63
2022-12-19T18:40:33.629Z,17.20
2022-12-19T18:43:22.459Z,16.90
2022-12-19T18:46:15.059Z,14.32
2022-12-19T18:49:03.758Z,17.60
2022-12-19T18:51:54.408Z,13.40
2022-12-19T18:54:42.284Z,16.27
2022-12-19T18:57:32.382Z,16.77
2022-12-19T19:00:26.507Z,13.52
2022-12-19T19:03:20.303Z,16.23
2022-12-19T19:06:19.458Z,20.95
2022-12-19T19:09:16.337Z,14.90
2022-12-19T19:12:27.100Z,24.53
2022-12-19T19:15:15.515Z,22.23
2022-12-19T19:18:07.023Z,17.83
2022-12-19T19:21:00.676Z,21.08
2022-12-19T19:24:07.795Z,20.02
2022-12-19T19:26:55.879Z,18.58
2022-12-19T19:29:43.565Z,17.60
2022-12-19T19:32:33.060Z,15.47
2022-12-19T19:35:22.236Z,15.40
2022-12-19T19:38:13.530Z,19.23
2022-12-19T19:41:01.327Z,16.27
2022-12-19T19:43:48.983Z,17.10
2022-12-19T19:46:37.777Z,15.80
2022-12-19T19:49:26.076Z,16.20
2022-12-19T19:52:13.943Z,16.47
2022-12-19T19:55:03.957Z,16.47
2022-12-19T19:57:53.375Z,14.43
2022-12-19T20:00:41.152Z,17.30
2022-12-19T20:03:29.188Z,15.30
2022-12-19T20:06:19.635Z,17.67
2022-12-19T20:09:07.605Z,19.03
2022-12-19T20:11:56.427Z,14.07
2022-12-19T20:14:44.899Z,16.43
2022-12-19T20:17:32.601Z,18.97
2022-12-19T20:20:20.360Z,17.83
2022-12-19T20:23:28.414Z,17.33
2022-12-19T20:26:17.259Z,14.20
2022-12-19T20:29:06.746Z,20.13
2022-12-19T20:31:56.832Z,16.80
2022-12-19T20:34:45.208Z,13.93
2022-12-19T20:37:36.376Z,16.07
2022-12-19T20:40:37.493Z,13.30
2022-12-19T20:43:25.643Z,14.30
2022-12-19T20:46:16.007Z,13.20
2022-12-19T20:49:04.027Z,14.37
2022-12-19T20:51:52.317Z,16.07
2022-12-19T20:54:40.374Z,16.93
2022-12-19T20:57:30.741Z,13.87
2022-12-19T21:00:19.156Z,13.03
2022-12-19T21:06:16.688Z,12.13
2022-12-19T21:09:05.938Z,15.40
2022-12-19T21:11:53.947Z,14.40
2022-12-19T21:14:41.638Z,14.37
2022-12-19T21:17:29.372Z,12.83
2022-12-19T21:20:17.119Z,14.87
2022-12-19T21:23:05.438Z,16.13
2022-12-19T21:25:56.635Z,12.10
2022-12-19T21:28:45.842Z,13.15
2022-12-19T21:31:33.599Z,14.07
2022-12-19T21:34:21.236Z,12.53
2022-12-19T21:37:09.391Z,12.93
2022-12-19T21:39:58.137Z,12.63
2022-12-19T21:42:46.123Z,13.77
2022-12-19T21:45:33.844Z,13.27
2022-12-19T21:48:21.445Z,13.30
2022-12-19T21:51:10.284Z,13.20
2022-12-19T21:54:03.418Z,14.37
2022-12-19T21:56:51.506Z,13.57
2022-12-19T21:59:42.626Z,12.73
2022-12-19T22:02:30.501Z,14.00
2022-12-19T22:05:18.353Z,14.13
2022-12-19T22:08:06.202Z,14.43
2022-12-19T22:10:55.939Z,14.17
2022-12-19T22:13:44.985Z,14.00
2022-12-19T22:16:35.733Z,12.88
2022-12-19T22:19:23.553Z,14.53
2022-12-19T22:22:11.238Z,13.87
2022-12-19T22:24:58.985Z,15.63
2022-12-19T22:27:46.657Z,13.13
2022-12-19T22:30:37.435Z,14.07
2022-12-19T22:33:25.195Z,13.80
2022-12-19T22:36:15.493Z,13.63
2022-12-19T22:39:06.915Z,11.33
2022-12-19T22:41:54.673Z,13.47
2022-12-19T22:44:42.269Z,12.97
2022-12-19T22:47:30.067Z,12.87
2022-12-19T22:50:17.790Z,13.10
2022-12-19T22:53:11.050Z,14.73
2022-12-19T22:56:08.003Z,13.23
2022-12-19T22:58:59.477Z,13.97
2022-12-19T23:01:47.394Z,12.15
2022-12-19T23:04:36.237Z,13.27
2022-12-19T23:07:24.797Z,11.73
2022-12-19T23:10:12.890Z,12.77
2022-12-19T23:13:00.593Z,13.40
2022-12-19T23:15:48.339Z,11.67
2022-12-19T23:18:36.076Z,11.73
2022-12-19T23:21:25.439Z,12.80
2022-12-19T23:24:13.362Z,14.40
2022-12-19T23:27:01.311Z,14.60
2022-12-19T23:29:49.978Z,13.43
2022-12-19T23:32:37.745Z,12.27
2022-12-19T23:35:25.459Z,12.33
2022-12-19T23:38:13.147Z,12.73
2022-12-19T23:41:06.597Z,12.83
2022-12-19T23:43:55.149Z,11.17
2022-12-19T23:46:42.778Z,14.07
2022-12-19T23:49:30.568Z,15.67
2022-12-19T23:52:18.211Z,16.90
2022-12-19T23:55:06.768Z,10.77
2022-12-19T23:57:54.480Z,12.10
